createdAt,value
2018-06-10T00:00:22.208Z,26.36
2018-06-10T00:01:22.222Z,26.29
2018-06-10T00:02:22.245Z,26.21
2018-06-10T00:03:22.284Z,26.19
2018-06-10T00:04:22.320Z,26.25
2018-06-10T00:05:22.620Z,26.16
2018-06-10T00:06:22.103Z,26.07
2018-06-10T00:07:22.651Z,26.15
2018-06-10T00:08:22.692Z,26.1
2018-06-10T00:09:22.729Z,26.1
2018-06-10T00:10:22.728Z,26.19
2018-06-10T00:11:22.755Z,26.07
2018-06-10T00:12:22.794Z,26.1
2018-06-10T00:13:22.821Z,26.19
2018-06-10T00:14:22.845Z,26.07
2018-06-10T00:15:22.877Z,26.15
2018-06-10T00:16:22.648Z,26.18
2018-06-10T00:17:22.943Z,26.15
2018-06-10T00:18:22.965Z,26.03
2018-06-10T00:19:22.989Z,26.02
2018-06-10T00:20:23.009Z,26
2018-06-10T00:21:23.043Z,25.9
2018-06-10T00:22:23.052Z,25.99
2018-06-10T00:23:23.107Z,25.98
2018-06-10T00:24:22.868Z,25.91
2018-06-10T00:25:23.170Z,25.96
2018-06-10T00:26:23.164Z,25.91
2018-06-10T00:27:23.209Z,25.95
2018-06-10T00:28:22.959Z,25.9
2018-06-10T00:29:22.728Z,25.93
2018-06-10T00:30:23.020Z,25.87
2018-06-10T00:31:23.321Z,25.83
2018-06-10T00:32:23.326Z,25.81
2018-06-10T00:33:23.354Z,25.8
2018-06-10T00:34:23.376Z,25.8
2018-06-10T00:35:23.167Z,25.78
2018-06-10T00:36:23.181Z,25.81
2018-06-10T00:37:23.196Z,25.77
2018-06-10T00:38:23.234Z,25.7
2018-06-10T00:39:23.263Z,25.73
2018-06-10T00:40:23.561Z,25.72
2018-06-10T00:41:23.563Z,25.7
2018-06-10T00:42:23.347Z,25.65
2018-06-10T00:43:23.628Z,25.68
2018-06-10T00:44:23.674Z,25.73
2018-06-10T00:45:23.707Z,25.7
2018-06-10T00:46:23.718Z,25.66
2018-06-10T00:47:23.472Z,25.6
2018-06-10T00:48:23.509Z,25.65
2018-06-10T00:49:23.817Z,25.6
2018-06-10T00:50:23.821Z,25.58
2018-06-10T00:51:23.614Z,25.59
2018-06-10T00:52:23.600Z,25.47
2018-06-10T00:53:23.909Z,25.62
2018-06-10T00:54:23.956Z,25.54
2018-06-10T00:55:23.947Z,25.55
2018-06-10T00:56:24.012Z,25.59
2018-06-10T00:57:23.730Z,25.54
2018-06-10T00:58:24.040Z,25.44
2018-06-10T00:59:24.057Z,25.54
2018-06-10T01:00:24.100Z,25.43
2018-06-10T01:01:24.132Z,25.43
2018-06-10T01:02:24.153Z,25.46
2018-06-10T01:03:24.185Z,25.53
2018-06-10T01:04:24.193Z,25.44
2018-06-10T01:05:24.226Z,25.43
2018-06-10T01:06:24.258Z,25.38
2018-06-10T01:07:24.002Z,25.31
2018-06-10T01:08:24.033Z,25.36
2018-06-10T01:09:24.340Z,25.36
2018-06-10T01:10:24.100Z,25.31
2018-06-10T01:11:24.125Z,25.31
2018-06-10T01:12:39.053Z,25.33
2018-06-10T01:13:24.457Z,25.33
2018-06-10T01:14:24.472Z,25.31
2018-06-10T01:15:24.724Z,25.28
2018-06-10T01:16:24.253Z,25.29
2018-06-10T01:17:24.588Z,25.25
2018-06-10T01:18:24.577Z,25.25
2018-06-10T01:19:24.611Z,25.23
2018-06-10T01:20:24.646Z,25.22
2018-06-10T01:21:24.596Z,25.14
2018-06-10T01:22:24.405Z,25.21
2018-06-10T01:23:24.712Z,25.17
2018-06-10T01:24:24.733Z,25.16
2018-06-10T01:25:24.747Z,25.16
2018-06-10T01:26:24.815Z,25.16
2018-06-10T01:27:24.544Z,25.17
2018-06-10T01:28:24.568Z,25.1
2018-06-10T01:29:24.861Z,25.13
2018-06-10T01:30:24.891Z,25.06
2018-06-10T01:31:24.906Z,25.1
2018-06-10T01:32:24.694Z,25.13
2018-06-10T01:33:24.966Z,25.07
2018-06-10T01:34:24.999Z,25.03
2018-06-10T01:35:25.014Z,25.14
2018-06-10T01:36:25.067Z,24.95
2018-06-10T01:37:25.100Z,24.99
2018-06-10T01:38:25.176Z,24.99
2018-06-10T01:39:24.866Z,24.95
2018-06-10T01:40:25.216Z,24.92
2018-06-10T01:41:25.179Z,25.01
2018-06-10T01:42:25.199Z,24.98
2018-06-10T01:43:25.247Z,24.85
2018-06-10T01:44:25.287Z,24.86
2018-06-10T01:45:25.316Z,24.95
2018-06-10T01:46:25.306Z,24.85
2018-06-10T01:47:25.371Z,24.85
2018-06-10T01:48:25.365Z,24.84
2018-06-10T01:49:25.400Z,24.89
2018-06-10T01:50:25.424Z,24.88
2018-06-10T01:51:25.466Z,24.81
2018-06-10T01:52:25.189Z,24.85
2018-06-10T01:53:25.222Z,24.88
2018-06-10T01:54:25.526Z,24.8
2018-06-10T01:55:25.034Z,24.78
2018-06-10T01:56:25.577Z,24.73
2018-06-10T01:57:25.673Z,24.73
2018-06-10T01:58:25.659Z,24.81
2018-06-10T01:59:25.650Z,24.76
2018-06-10T02:00:25.417Z,24.81
2018-06-10T02:01:25.694Z,24.76
2018-06-10T02:02:25.485Z,24.73
2018-06-10T02:03:25.763Z,24.76
2018-06-10T02:04:25.789Z,24.7
2018-06-10T02:05:25.825Z,24.66
2018-06-10T02:06:25.837Z,24.7
2018-06-10T02:07:25.330Z,24.68
2018-06-10T02:08:25.688Z,24.61
2018-06-10T02:09:25.926Z,24.63
2018-06-10T02:10:25.399Z,24.63
2018-06-10T02:11:25.969Z,24.61
2018-06-10T02:12:26.012Z,24.63
2018-06-10T02:13:26.043Z,24.68
2018-06-10T02:14:26.047Z,24.65
2018-06-10T02:15:26.087Z,24.6
2018-06-10T02:16:25.834Z,24.58
2018-06-10T02:17:25.848Z,24.6
2018-06-10T02:18:25.907Z,24.58
2018-06-10T02:19:25.917Z,24.57
2018-06-10T02:20:26.200Z,24.54
2018-06-10T02:21:25.977Z,24.58
2018-06-10T02:22:26.273Z,24.51
2018-06-10T02:23:26.361Z,24.51
2018-06-10T02:24:26.332Z,24.53
2018-06-10T02:25:26.337Z,24.54
2018-06-10T02:26:26.559Z,24.53
2018-06-10T02:27:26.386Z,24.51
2018-06-10T02:28:26.148Z,24.55
2018-06-10T02:29:26.451Z,24.54
2018-06-10T02:30:26.493Z,24.55
2018-06-10T02:31:26.247Z,24.58
2018-06-10T02:32:26.726Z,24.47
2018-06-10T02:33:26.539Z,24.43
2018-06-10T02:34:26.605Z,24.38
2018-06-10T02:35:26.347Z,24.45
2018-06-10T02:36:26.369Z,24.47
2018-06-10T02:37:26.116Z,24.42
2018-06-10T02:38:26.876Z,24.45
2018-06-10T02:39:26.469Z,24.51
2018-06-10T02:40:26.744Z,24.39
2018-06-10T02:41:26.757Z,24.39
2018-06-10T02:42:27.026Z,24.45
2018-06-10T02:43:26.542Z,24.36
2018-06-10T02:44:26.850Z,24.35
2018-06-10T02:45:26.880Z,24.33
2018-06-10T02:46:26.890Z,24.38
2018-06-10T02:47:26.934Z,24.36
2018-06-10T02:48:26.948Z,24.33
2018-06-10T02:49:27.004Z,24.43
2018-06-10T02:50:27.010Z,24.3
2018-06-10T02:51:27.040Z,24.3
2018-06-10T02:52:27.052Z,24.36
2018-06-10T02:53:26.801Z,24.29
2018-06-10T02:54:27.115Z,24.33
2018-06-10T02:55:27.124Z,24.26
2018-06-10T02:56:27.175Z,24.23
2018-06-10T02:57:26.908Z,24.23
2018-06-10T02:58:27.181Z,24.26
2018-06-10T02:59:27.232Z,24.21
2018-06-10T03:00:26.985Z,24.2
2018-06-10T03:01:27.268Z,24.23
2018-06-10T03:02:27.034Z,24.21
2018-06-10T03:03:27.327Z,24.2
2018-06-10T03:04:27.368Z,24.23
2018-06-10T03:05:27.398Z,24.2
2018-06-10T03:06:27.413Z,24.16
2018-06-10T03:07:27.165Z,24.16
2018-06-10T03:08:27.464Z,24.21
2018-06-10T03:09:27.229Z,24.16
2018-06-10T03:10:27.231Z,24.18
2018-06-10T03:11:27.264Z,24.14
2018-06-10T03:12:27.558Z,24.08
2018-06-10T03:13:27.573Z,24.1
2018-06-10T03:14:27.093Z,24.05
2018-06-10T03:15:27.635Z,24.05
2018-06-10T03:16:27.398Z,24.05
2018-06-10T03:17:27.427Z,24.11
2018-06-10T03:18:27.715Z,24.02
2018-06-10T03:19:27.771Z,24.14
2018-06-10T03:20:27.512Z,24.03
2018-06-10T03:21:27.793Z,24.08
2018-06-10T03:22:27.542Z,24.02
2018-06-10T03:23:27.862Z,24.08
2018-06-10T03:24:27.866Z,24.03
2018-06-10T03:25:27.909Z,24.02
2018-06-10T03:26:27.938Z,24.06
2018-06-10T03:27:27.942Z,24.01
2018-06-10T03:28:27.951Z,24.03
2018-06-10T03:29:27.990Z,24.01
2018-06-10T03:30:28.035Z,24.01
2018-06-10T03:31:28.065Z,24.01
2018-06-10T03:32:28.070Z,23.96
2018-06-10T03:33:27.830Z,23.98
2018-06-10T03:34:27.851Z,23.95
2018-06-10T03:35:27.871Z,23.98
2018-06-10T03:36:28.188Z,23.99
2018-06-10T03:37:27.920Z,23.92
2018-06-10T03:38:28.242Z,24.02
2018-06-10T03:39:27.997Z,24.03
2018-06-10T03:40:28.276Z,23.92
2018-06-10T03:41:28.303Z,23.98
2018-06-10T03:42:28.051Z,23.95
2018-06-10T03:43:28.096Z,23.87
2018-06-10T03:44:27.827Z,23.95
2018-06-10T03:45:28.403Z,23.95
2018-06-10T03:46:28.439Z,23.92
2018-06-10T03:47:28.193Z,23.96
2018-06-10T03:48:28.202Z,23.92
2018-06-10T03:49:28.489Z,23.93
2018-06-10T03:50:28.264Z,23.95
2018-06-10T03:51:28.277Z,23.93
2018-06-10T03:52:28.571Z,23.95
2018-06-10T03:53:28.604Z,23.88
2018-06-10T03:54:28.425Z,23.88
2018-06-10T03:55:28.639Z,23.92
2018-06-10T03:56:28.692Z,23.88
2018-06-10T03:57:28.441Z,23.93
2018-06-10T03:58:28.777Z,23.84
2018-06-10T03:59:28.483Z,23.88
2018-06-10T04:00:28.778Z,23.86
2018-06-10T04:01:28.547Z,23.91
2018-06-10T04:02:28.864Z,23.88
2018-06-10T04:03:28.602Z,23.86
2018-06-10T04:04:28.631Z,23.91
2018-06-10T04:05:28.636Z,23.86
2018-06-10T04:06:28.392Z,23.86
2018-06-10T04:07:28.985Z,23.87
2018-06-10T04:08:28.706Z,23.83
2018-06-10T04:09:28.746Z,23.87
2018-06-10T04:10:29.031Z,23.91
2018-06-10T04:11:29.072Z,23.88
2018-06-10T04:12:28.809Z,23.88
2018-06-10T04:13:29.129Z,23.92
2018-06-10T04:14:28.614Z,23.92
2018-06-10T04:15:28.918Z,23.92
2018-06-10T04:16:29.196Z,23.86
2018-06-10T04:17:29.202Z,23.92
2018-06-10T04:18:28.705Z,23.86
2018-06-10T04:19:28.989Z,23.88
2018-06-10T04:20:29.309Z,23.93
2018-06-10T04:21:29.074Z,23.87
2018-06-10T04:22:29.068Z,23.96
2018-06-10T04:23:29.359Z,23.93
2018-06-10T04:24:29.130Z,23.96
2018-06-10T04:25:29.423Z,24.01
2018-06-10T04:26:29.457Z,23.92
2018-06-10T04:27:29.229Z,23.92
2018-06-10T04:28:28.982Z,24.02
2018-06-10T04:29:29.251Z,23.93
2018-06-10T04:30:29.292Z,23.91
2018-06-10T04:31:29.578Z,23.91
2018-06-10T04:32:29.316Z,23.91
2018-06-10T04:33:29.627Z,23.99
2018-06-10T04:34:29.385Z,23.98
2018-06-10T04:35:29.697Z,23.99
2018-06-10T04:36:29.710Z,23.96
2018-06-10T04:37:29.714Z,24.03
2018-06-10T04:38:29.773Z,23.96
2018-06-10T04:39:29.238Z,24.02
2018-06-10T04:40:29.803Z,24.06
2018-06-10T04:41:29.849Z,24.03
2018-06-10T04:42:29.615Z,24.05
2018-06-10T04:43:29.332Z,24.05
2018-06-10T04:44:29.367Z,24.05
2018-06-10T04:45:29.651Z,24.02
2018-06-10T04:46:29.990Z,24.16
2018-06-10T04:47:29.980Z,24.08
2018-06-10T04:48:29.762Z,24.13
2018-06-10T04:49:29.510Z,24.13
2018-06-10T04:50:29.795Z,24.18
2018-06-10T04:51:30.093Z,24.13
2018-06-10T04:52:30.103Z,24.21
2018-06-10T04:53:30.142Z,24.17
2018-06-10T04:54:29.912Z,24.13
2018-06-10T04:55:30.177Z,24.14
2018-06-10T04:56:30.218Z,24.18
2018-06-10T04:57:29.979Z,24.17
2018-06-10T04:58:29.982Z,24.17
2018-06-10T04:59:30.019Z,24.2
2018-06-10T05:00:30.312Z,24.23
2018-06-10T05:01:30.354Z,24.28
2018-06-10T05:02:30.081Z,24.2
2018-06-10T05:03:30.113Z,24.13
2018-06-10T05:04:30.394Z,24.26
2018-06-10T05:05:30.167Z,24.28
2018-06-10T05:06:30.450Z,24.29
2018-06-10T05:07:30.211Z,24.42
2018-06-10T05:08:30.529Z,24.35
2018-06-10T05:09:30.261Z,24.33
2018-06-10T05:10:30.310Z,24.33
2018-06-10T05:11:30.585Z,24.39
2018-06-10T05:12:30.357Z,24.36
2018-06-10T05:13:30.644Z,24.43
2018-06-10T05:14:30.669Z,24.42
2018-06-10T05:15:30.695Z,24.43
2018-06-10T05:16:30.702Z,24.39
2018-06-10T05:17:30.487Z,24.39
2018-06-10T05:18:30.769Z,24.47
2018-06-10T05:19:30.806Z,24.45
2018-06-10T05:20:30.826Z,24.55
2018-06-10T05:21:30.581Z,24.5
2018-06-10T05:22:30.881Z,24.53
2018-06-10T05:23:30.637Z,24.55
2018-06-10T05:24:30.701Z,24.5
2018-06-10T05:25:30.929Z,24.57
2018-06-10T05:26:30.978Z,24.51
2018-06-10T05:27:31.021Z,24.55
2018-06-10T05:28:30.761Z,24.65
2018-06-10T05:29:31.029Z,24.61
2018-06-10T05:30:30.795Z,24.66
2018-06-10T05:31:31.116Z,24.58
2018-06-10T05:32:31.135Z,24.6
2018-06-10T05:33:31.165Z,24.7
2018-06-10T05:34:31.175Z,24.7
2018-06-10T05:35:31.215Z,24.68
2018-06-10T05:36:31.237Z,24.74
2018-06-10T05:37:31.005Z,24.73
2018-06-10T05:38:31.281Z,24.73
2018-06-10T05:39:31.317Z,24.76
2018-06-10T05:40:31.322Z,24.76
2018-06-10T05:41:31.357Z,24.73
2018-06-10T05:42:30.844Z,24.84
2018-06-10T05:43:31.153Z,24.86
2018-06-10T05:44:31.439Z,24.85
2018-06-10T05:45:31.181Z,24.84
2018-06-10T05:46:31.505Z,24.86
2018-06-10T05:47:31.520Z,24.86
2018-06-10T05:48:31.538Z,24.84
2018-06-10T05:49:31.303Z,24.93
2018-06-10T05:50:31.594Z,24.95
2018-06-10T05:51:31.625Z,24.95
2018-06-10T05:52:31.631Z,25.03
2018-06-10T05:53:31.680Z,25.1
2018-06-10T05:54:31.441Z,25.11
2018-06-10T05:55:31.721Z,25.17
2018-06-10T05:56:31.765Z,25.18
2018-06-10T05:57:31.864Z,25.14
2018-06-10T05:58:31.817Z,25.11
2018-06-10T05:59:31.832Z,25.21
2018-06-10T06:00:31.904Z,25.23
2018-06-10T06:01:31.866Z,25.25
2018-06-10T06:02:31.636Z,25.26
2018-06-10T06:03:31.942Z,25.25
2018-06-10T06:04:31.718Z,25.33
2018-06-10T06:05:31.986Z,25.29
2018-06-10T06:06:32.015Z,25.32
2018-06-10T06:07:31.760Z,25.43
2018-06-10T06:08:32.035Z,25.48
2018-06-10T06:09:32.089Z,25.48
2018-06-10T06:10:32.161Z,25.43
2018-06-10T06:11:32.145Z,25.43
2018-06-10T06:12:31.878Z,25.47
2018-06-10T06:13:31.976Z,25.46
2018-06-10T06:14:32.248Z,25.55
2018-06-10T06:15:31.964Z,25.51
2018-06-10T06:16:32.013Z,25.58
2018-06-10T06:17:32.281Z,25.55
2018-06-10T06:18:32.335Z,25.55
2018-06-10T06:19:32.327Z,25.6
2018-06-10T06:20:32.104Z,25.6
2018-06-10T06:21:32.375Z,25.66
2018-06-10T06:22:32.432Z,25.72
2018-06-10T06:23:32.436Z,25.66
2018-06-10T06:24:32.486Z,25.69
2018-06-10T06:25:32.489Z,25.68
2018-06-10T06:26:32.244Z,25.66
2018-06-10T06:27:32.619Z,25.73
2018-06-10T06:28:32.568Z,25.75
2018-06-10T06:29:32.606Z,25.73
2018-06-10T06:30:32.348Z,25.83
2018-06-10T06:31:32.383Z,25.8
2018-06-10T06:32:32.681Z,25.83
2018-06-10T06:33:32.440Z,25.8
2018-06-10T06:34:32.741Z,25.88
2018-06-10T06:35:32.770Z,25.93
2018-06-10T06:36:32.527Z,25.95
2018-06-10T06:37:32.834Z,25.95
2018-06-10T06:38:32.578Z,26.02
2018-06-10T06:39:32.995Z,26.07
2018-06-10T06:40:32.622Z,26.1
2018-06-10T06:41:32.635Z,26.13
2018-06-10T06:42:32.985Z,26.06
2018-06-10T06:43:32.977Z,26.09
2018-06-10T06:44:33.014Z,26.1
2018-06-10T06:45:32.751Z,26.22
2018-06-10T06:46:33.066Z,26.1
2018-06-10T06:47:33.090Z,26.13
2018-06-10T06:48:32.835Z,26.22
2018-06-10T06:49:32.855Z,26.25
2018-06-10T06:50:33.153Z,26.23
2018-06-10T06:51:33.174Z,26.25
2018-06-10T06:52:33.411Z,26.26
2018-06-10T06:53:32.968Z,26.28
2018-06-10T06:54:33.005Z,26.41
2018-06-10T06:55:33.003Z,26.38
2018-06-10T06:56:33.069Z,26.41
2018-06-10T06:57:33.330Z,26.44
2018-06-10T06:58:33.107Z,26.45
2018-06-10T06:59:33.130Z,26.41
2018-06-10T07:00:33.150Z,26.55
2018-06-10T07:01:33.202Z,26.56
2018-06-10T07:02:33.208Z,26.55
2018-06-10T07:03:33.226Z,26.58
2018-06-10T07:04:33.252Z,26.66
2018-06-10T07:05:33.568Z,26.63
2018-06-10T07:06:33.329Z,26.75
2018-06-10T07:07:33.599Z,26.74
2018-06-10T07:08:33.094Z,26.84
2018-06-10T07:09:33.635Z,26.83
2018-06-10T07:10:33.677Z,26.9
2018-06-10T07:11:33.426Z,26.9
2018-06-10T07:12:33.735Z,26.92
2018-06-10T07:13:33.770Z,27
2018-06-10T07:14:33.787Z,26.99
2018-06-10T07:15:33.801Z,26.97
2018-06-10T07:16:33.574Z,27.07
2018-06-10T07:17:33.624Z,27.1
2018-06-10T07:18:33.882Z,27.18
2018-06-10T07:19:33.925Z,27.18
2018-06-10T07:20:33.669Z,27.26
2018-06-10T07:21:33.985Z,27.29
2018-06-10T07:22:34.033Z,27.29
2018-06-10T07:23:34.080Z,27.25
2018-06-10T07:24:34.043Z,27.35
2018-06-10T07:25:34.080Z,27.37
2018-06-10T07:26:34.143Z,27.44
2018-06-10T07:27:34.160Z,27.39
2018-06-10T07:28:34.173Z,27.48
2018-06-10T07:29:34.192Z,27.48
2018-06-10T07:30:34.353Z,27.52
2018-06-10T07:31:34.260Z,27.58
2018-06-10T07:32:34.014Z,27.47
2018-06-10T07:33:34.529Z,27.48
2018-06-10T07:34:34.357Z,27.54
2018-06-10T07:35:34.414Z,27.55
2018-06-10T07:36:34.419Z,27.59
2018-06-10T07:37:34.435Z,27.6
2018-06-10T07:38:34.462Z,27.65
2018-06-10T07:39:34.475Z,27.59
2018-06-10T07:40:34.607Z,27.74
2018-06-10T07:41:34.554Z,27.73
2018-06-10T07:42:34.301Z,27.73
2018-06-10T07:43:34.583Z,27.73
2018-06-10T07:44:34.343Z,27.77
2018-06-10T07:45:34.633Z,27.92
2018-06-10T07:46:34.665Z,27.9
2018-06-10T07:47:34.690Z,27.87
2018-06-10T07:48:34.497Z,27.95
2018-06-10T07:49:34.729Z,27.95
2018-06-10T07:50:34.777Z,27.98
2018-06-10T07:51:34.785Z,28.04
2018-06-10T07:52:34.811Z,28.05
2018-06-10T07:53:34.581Z,28.02
2018-06-10T07:54:34.934Z,28.07
2018-06-10T07:55:34.886Z,28.02
2018-06-10T07:56:34.668Z,28.1
2018-06-10T07:57:34.962Z,28.12
2018-06-10T07:58:34.973Z,28.22
2018-06-10T07:59:35.027Z,28.17
2018-06-10T08:00:35.051Z,28.23
2018-06-10T08:01:34.528Z,28.22
2018-06-10T08:02:34.833Z,28.19
2018-06-10T08:03:35.137Z,28.25
2018-06-10T08:04:34.877Z,28.26
2018-06-10T08:05:35.354Z,28.27
2018-06-10T08:06:35.216Z,28.3
2018-06-10T08:07:34.962Z,28.27
2018-06-10T08:08:35.003Z,28.26
2018-06-10T08:09:35.293Z,28.38
2018-06-10T08:10:35.053Z,28.35
2018-06-10T08:11:35.148Z,28.37
2018-06-10T08:12:35.389Z,28.37
2018-06-10T08:13:35.455Z,28.37
2018-06-10T08:14:35.169Z,28.39
2018-06-10T08:15:35.473Z,28.47
2018-06-10T08:16:35.490Z,28.32
2018-06-10T08:17:35.510Z,28.35
2018-06-10T08:18:36.028Z,28.37
2018-06-10T08:19:35.325Z,28.37
2018-06-10T08:20:35.345Z,28.42
2018-06-10T08:21:35.357Z,28.33
2018-06-10T08:22:35.668Z,28.38
2018-06-10T08:23:35.432Z,28.39
2018-06-10T08:24:35.771Z,28.42
2018-06-10T08:25:35.477Z,28.52
2018-06-10T08:26:36.051Z,28.44
2018-06-10T08:27:35.273Z,28.51
2018-06-10T08:28:35.567Z,28.51
2018-06-10T08:29:35.857Z,28.45
2018-06-10T08:30:35.349Z,28.52
2018-06-10T08:31:35.365Z,28.52
2018-06-10T08:32:35.937Z,28.54
2018-06-10T08:33:35.905Z,28.52
2018-06-10T08:34:35.716Z,28.49
2018-06-10T08:35:35.753Z,28.52
2018-06-10T08:36:35.770Z,28.49
2018-06-10T08:37:36.085Z,28.48
2018-06-10T08:38:36.099Z,28.45
2018-06-10T08:39:36.143Z,28.54
2018-06-10T08:40:36.171Z,28.54
2018-06-10T08:41:36.183Z,28.52
2018-06-10T08:42:36.228Z,28.54
2018-06-10T08:43:35.995Z,28.56
2018-06-10T08:44:36.289Z,28.51
2018-06-10T08:45:36.312Z,28.52
2018-06-10T08:46:36.482Z,28.49
2018-06-10T08:47:36.376Z,28.54
2018-06-10T08:48:36.139Z,28.52
2018-06-10T08:49:36.406Z,28.44
2018-06-10T08:50:36.301Z,28.54
2018-06-10T08:51:36.215Z,28.48
2018-06-10T08:52:36.239Z,28.51
2018-06-10T08:53:36.555Z,28.56
2018-06-10T08:54:36.584Z,28.47
2018-06-10T08:55:36.594Z,28.57
2018-06-10T08:56:36.334Z,28.59
2018-06-10T08:57:36.505Z,28.48
2018-06-10T08:58:36.678Z,28.51
2018-06-10T08:59:36.723Z,28.56
2018-06-10T09:00:36.718Z,28.63
2018-06-10T09:01:36.764Z,28.54
2018-06-10T09:02:36.826Z,28.62
2018-06-10T09:03:36.830Z,28.63
2018-06-10T09:04:36.831Z,28.64
2018-06-10T09:05:36.870Z,28.69
2018-06-10T09:06:36.887Z,28.67
2018-06-10T09:07:36.934Z,28.74
2018-06-10T09:08:37.193Z,28.62
2018-06-10T09:09:37.012Z,28.67
2018-06-10T09:10:37.016Z,28.7
2018-06-10T09:11:37.054Z,28.79
2018-06-10T09:12:37.291Z,28.75
2018-06-10T09:13:37.149Z,28.82
2018-06-10T09:14:36.848Z,28.81
2018-06-10T09:15:37.161Z,28.7
2018-06-10T09:16:37.188Z,28.69
2018-06-10T09:17:36.978Z,28.81
2018-06-10T09:18:37.264Z,28.76
2018-06-10T09:19:37.465Z,28.72
2018-06-10T09:20:37.350Z,28.76
2018-06-10T09:21:37.330Z,28.75
2018-06-10T09:22:37.344Z,28.67
2018-06-10T09:23:37.112Z,28.76
2018-06-10T09:24:37.418Z,28.78
2018-06-10T09:25:37.454Z,28.76
2018-06-10T09:26:37.210Z,28.78
2018-06-10T09:27:37.493Z,28.76
2018-06-10T09:28:37.536Z,28.75
2018-06-10T09:29:37.553Z,28.76
2018-06-10T09:30:37.062Z,28.81
2018-06-10T09:31:37.634Z,28.89
2018-06-10T09:32:37.674Z,28.81
2018-06-10T09:33:37.551Z,28.79
2018-06-10T09:34:37.426Z,28.91
2018-06-10T09:35:37.612Z,28.93
2018-06-10T09:36:37.751Z,28.96
2018-06-10T09:37:38.295Z,28.97
2018-06-10T09:38:37.829Z,28.93
2018-06-10T09:39:37.850Z,28.98
2018-06-10T09:40:37.923Z,29.02
2018-06-10T09:41:37.897Z,29.02
2018-06-10T09:42:37.676Z,29.01
2018-06-10T09:43:37.426Z,29.13
2018-06-10T09:44:38.002Z,29.1
2018-06-10T09:45:38.012Z,29.08
2018-06-10T09:46:38.055Z,29.05
2018-06-10T09:47:37.795Z,29.13
2018-06-10T09:48:37.842Z,29.16
2018-06-10T09:49:38.127Z,29.19
2018-06-10T09:50:38.197Z,29.14
2018-06-10T09:51:37.932Z,29.2
2018-06-10T09:52:37.943Z,29.2
2018-06-10T09:53:37.982Z,29.14
2018-06-10T09:54:38.270Z,29.2
2018-06-10T09:55:37.965Z,29.2
2018-06-10T09:56:38.341Z,29.27
2018-06-10T09:57:38.366Z,29.22
2018-06-10T09:58:38.117Z,29.22
2018-06-10T09:59:38.144Z,29.19
2018-06-10T10:00:38.513Z,29.29
2018-06-10T10:01:38.209Z,29.26
2018-06-10T10:02:38.248Z,29.29
2018-06-10T10:03:38.541Z,29.32
2018-06-10T10:04:38.292Z,29.29
2018-06-10T10:05:38.647Z,29.31
2018-06-10T10:06:38.618Z,29.39
2018-06-10T10:07:38.642Z,29.42
2018-06-10T10:08:38.410Z,29.36
2018-06-10T10:09:38.444Z,29.36
2018-06-10T10:10:38.504Z,29.34
2018-06-10T10:11:38.766Z,29.41
2018-06-10T10:12:38.813Z,29.41
2018-06-10T10:13:38.820Z,29.45
2018-06-10T10:14:38.879Z,29.41
2018-06-10T10:15:38.644Z,29.44
2018-06-10T10:16:38.631Z,29.51
2018-06-10T10:17:38.680Z,29.51
2018-06-10T10:18:38.981Z,29.51
2018-06-10T10:19:38.987Z,29.54
2018-06-10T10:20:39.057Z,29.44
2018-06-10T10:21:39.066Z,29.51
2018-06-10T10:22:38.822Z,29.56
2018-06-10T10:23:39.101Z,29.53
2018-06-10T10:24:39.156Z,29.54
2018-06-10T10:25:39.282Z,29.57
2018-06-10T10:26:38.954Z,29.54
2018-06-10T10:27:39.247Z,29.54
2018-06-10T10:28:38.730Z,29.57
2018-06-10T10:29:39.321Z,29.65
2018-06-10T10:30:39.314Z,29.57
2018-06-10T10:31:39.348Z,29.71
2018-06-10T10:32:38.828Z,29.75
2018-06-10T10:33:39.401Z,29.68
2018-06-10T10:34:39.439Z,29.65
2018-06-10T10:35:39.462Z,29.69
2018-06-10T10:36:39.505Z,29.71
2018-06-10T10:37:39.258Z,29.69
2018-06-10T10:38:39.391Z,29.76
2018-06-10T10:39:39.585Z,29.76
2018-06-10T10:40:39.667Z,29.84
2018-06-10T10:41:39.630Z,29.82
2018-06-10T10:42:39.670Z,29.9
2018-06-10T10:43:39.432Z,29.97
2018-06-10T10:44:45.983Z,29.97
2018-06-10T10:45:39.753Z,30.03
2018-06-10T10:46:39.789Z,30.08
2018-06-10T10:47:39.550Z,30.06
2018-06-10T10:48:39.852Z,30.06
2018-06-10T10:49:39.643Z,30.18
2018-06-10T10:50:39.957Z,30.31
2018-06-10T10:51:39.929Z,30.3
2018-06-10T10:52:39.972Z,30.35
2018-06-10T10:53:39.729Z,30.35
2018-06-10T10:54:39.480Z,30.43
2018-06-10T10:55:40.129Z,30.43
2018-06-10T10:56:39.815Z,30.47
2018-06-10T10:57:40.128Z,30.51
2018-06-10T10:58:40.168Z,30.53
2018-06-10T10:59:39.921Z,30.59
2018-06-10T11:00:39.976Z,30.61
2018-06-10T11:01:39.950Z,30.62
2018-06-10T11:02:40.267Z,30.69
2018-06-10T11:03:40.287Z,30.72
2018-06-10T11:04:40.052Z,30.75
2018-06-10T11:05:39.890Z,30.78
2018-06-10T11:06:40.110Z,30.78
2018-06-10T11:07:40.408Z,30.84
2018-06-10T11:08:40.183Z,30.84
2018-06-10T11:09:40.463Z,30.88
2018-06-10T11:10:40.283Z,30.9
2018-06-10T11:11:40.513Z,31.05
2018-06-10T11:12:40.563Z,31.02
2018-06-10T11:13:40.603Z,31.09
2018-06-10T11:14:40.632Z,30.97
2018-06-10T11:15:40.701Z,31
2018-06-10T11:16:40.670Z,31.12
2018-06-10T11:17:40.439Z,31.14
2018-06-10T11:18:40.739Z,31.09
2018-06-10T11:19:40.788Z,31.25
2018-06-10T11:20:40.827Z,31.21
2018-06-10T11:21:40.823Z,31.36
2018-06-10T11:22:40.862Z,31.27
2018-06-10T11:23:40.881Z,31.42
2018-06-10T11:24:40.657Z,31.36
2018-06-10T11:25:40.954Z,31.43
2018-06-10T11:26:40.711Z,31.34
2018-06-10T11:27:41.008Z,31.43
2018-06-10T11:28:41.048Z,31.4
2018-06-10T11:29:40.533Z,31.42
2018-06-10T11:30:40.879Z,31.44
2018-06-10T11:31:41.126Z,31.54
2018-06-10T11:32:41.168Z,31.49
2018-06-10T11:33:41.200Z,31.55
2018-06-10T11:34:41.244Z,31.58
2018-06-10T11:35:40.987Z,31.62
2018-06-10T11:36:41.265Z,31.66
2018-06-10T11:37:41.059Z,31.74
2018-06-10T11:38:41.339Z,31.73
2018-06-10T11:39:41.372Z,31.74
2018-06-10T11:40:41.139Z,31.84
2018-06-10T11:41:41.407Z,31.81
2018-06-10T11:42:41.606Z,31.85
2018-06-10T11:43:41.492Z,31.94
2018-06-10T11:44:41.506Z,31.96
2018-06-10T11:45:41.534Z,32.04
2018-06-10T11:46:41.029Z,32.14
2018-06-10T11:47:41.629Z,32.11
2018-06-10T11:48:41.632Z,32.14
2018-06-10T11:49:41.692Z,32.19
2018-06-10T11:50:41.443Z,32.29
2018-06-10T11:51:41.200Z,32.3
2018-06-10T11:52:41.764Z,32.31
2018-06-10T11:53:41.789Z,32.37
2018-06-10T11:54:41.841Z,32.48
2018-06-10T11:55:41.597Z,32.4
2018-06-10T11:56:41.620Z,32.49
2018-06-10T11:57:41.653Z,32.51
2018-06-10T11:58:41.694Z,32.63
2018-06-10T11:59:41.977Z,32.65
2018-06-10T12:00:42.033Z,32.68
2018-06-10T12:01:42.044Z,32.71
2018-06-10T12:02:42.086Z,32.9
2018-06-10T12:03:42.105Z,32.97
2018-06-10T12:04:42.133Z,32.97
2018-06-10T12:05:41.900Z,33
2018-06-10T12:06:42.203Z,33.19
2018-06-10T12:07:42.239Z,33.22
2018-06-10T12:08:42.260Z,33.31
2018-06-10T12:09:42.024Z,33.31
2018-06-10T12:10:42.579Z,33.39
2018-06-10T12:11:42.089Z,33.42
2018-06-10T12:12:42.133Z,33.52
2018-06-10T12:13:42.484Z,33.46
2018-06-10T12:14:42.439Z,33.52
2018-06-10T12:15:42.482Z,33.62
2018-06-10T12:16:42.864Z,33.68
2018-06-10T12:17:42.556Z,33.67
2018-06-10T12:18:42.296Z,33.73
2018-06-10T12:19:42.606Z,33.8
2018-06-10T12:20:42.640Z,33.94
2018-06-10T12:21:42.402Z,33.89
2018-06-10T12:22:42.604Z,33.92
2018-06-10T12:23:42.465Z,33.96
2018-06-10T12:24:42.757Z,33.98
2018-06-10T12:25:42.793Z,33.92
2018-06-10T12:26:42.279Z,34.08
2018-06-10T12:27:42.578Z,34.02
2018-06-10T12:28:42.613Z,34.13
2018-06-10T12:29:42.383Z,34.18
2018-06-10T12:30:43.012Z,34.17
2018-06-10T12:31:42.725Z,34.23
2018-06-10T12:32:43.010Z,34.29
2018-06-10T12:33:42.781Z,34.25
2018-06-10T12:34:43.096Z,34.18
2018-06-10T12:35:43.138Z,34.18
2018-06-10T12:36:43.151Z,34.24
2018-06-10T12:37:42.910Z,34.2
2018-06-10T12:38:42.943Z,34.25
2018-06-10T12:39:43.229Z,34.2
2018-06-10T12:40:43.276Z,34.16
2018-06-10T12:41:43.024Z,34.25
2018-06-10T12:42:43.084Z,34.27
2018-06-10T12:43:43.378Z,34.29
2018-06-10T12:44:43.430Z,34.33
2018-06-10T12:45:43.441Z,34.47
2018-06-10T12:46:43.456Z,34.38
2018-06-10T12:47:43.513Z,34.45
2018-06-10T12:48:43.555Z,34.58
2018-06-10T12:49:43.033Z,34.64
2018-06-10T12:50:43.327Z,34.62
2018-06-10T12:51:43.637Z,34.67
2018-06-10T12:52:43.647Z,34.66
2018-06-10T12:53:43.151Z,34.64
2018-06-10T12:54:43.746Z,34.81
2018-06-10T12:55:43.768Z,34.88